createdAt,value
2019-03-02T00:01:56.661Z,6.50
2019-03-02T00:04:26.007Z,6.50
2019-03-02T00:06:55.381Z,6.50
2019-03-02T00:09:24.844Z,6.50
2019-03-02T00:11:58.147Z,6.50
2019-03-02T00:14:29.025Z,6.50
2019-03-02T00:16:59.184Z,6.50
2019-03-02T00:19:29.098Z,6.50
2019-03-02T00:22:06.566Z,6.50
2019-03-02T00:24:33.726Z,6.50
2019-03-02T00:27:03.056Z,6.50
2019-03-02T00:29:32.441Z,6.50
2019-03-02T00:32:05.808Z,6.50
2019-03-02T00:34:36.551Z,6.60
2019-03-02T00:37:06.684Z,6.50
2019-03-02T00:39:36.085Z,6.50
2019-03-02T00:42:05.464Z,6.50
2019-03-02T00:44:35.714Z,6.50
2019-03-02T00:47:09.141Z,6.60
2019-03-02T00:49:38.484Z,6.60
2019-03-02T00:52:08.233Z,6.50
2019-03-02T00:54:37.982Z,6.50
2019-03-02T00:57:07.363Z,6.50
2019-03-02T00:59:39.393Z,6.50
2019-03-02T01:02:08.956Z,6.50
2019-03-02T01:04:38.341Z,6.50
2019-03-02T01:07:09.181Z,6.50
2019-03-02T01:09:43.670Z,6.50
2019-03-02T01:12:14.861Z,6.50
2019-03-02T01:14:44.245Z,6.40
2019-03-02T01:17:14.373Z,6.40
2019-03-02T01:19:44.212Z,6.40
2019-03-02T01:22:16.406Z,6.40
2019-03-02T01:24:44.740Z,6.40
2019-03-02T01:27:14.207Z,6.40
2019-03-02T01:29:43.601Z,6.30
2019-03-02T01:32:16.198Z,6.30
2019-03-02T01:34:44.060Z,6.30
2019-03-02T01:37:13.457Z,6.20
2019-03-02T01:39:44.421Z,6.20
2019-03-02T01:42:15.178Z,6.20
2019-03-02T01:44:44.496Z,6.20
2019-03-02T01:47:15.750Z,6.20
2019-03-02T01:49:45.329Z,6.20
2019-03-02T01:52:21.078Z,6.20
2019-03-02T01:54:52.519Z,6.20
2019-03-02T01:57:25.194Z,6.30
2019-03-02T01:59:55.595Z,6.20
2019-03-02T02:02:25.394Z,6.20
2019-03-02T02:04:57.526Z,6.20
2019-03-02T02:07:25.893Z,6.20
2019-03-02T02:09:55.664Z,6.20
2019-03-02T02:12:28.740Z,6.20
2019-03-02T02:15:07.050Z,6.20
2019-03-02T02:17:37.624Z,6.20
2019-03-02T02:20:11.023Z,6.20
2019-03-02T02:22:39.602Z,6.20
2019-03-02T02:25:11.557Z,6.20
2019-03-02T02:27:40.921Z,6.10
2019-03-02T02:30:18.850Z,6.10
2019-03-02T02:32:45.444Z,6.10
2019-03-02T02:35:16.877Z,6.10
2019-03-02T02:37:46.271Z,6.10
2019-03-02T02:40:18.970Z,6.10
2019-03-02T02:42:53.303Z,6.10
2019-03-02T02:45:23.759Z,6.10
2019-03-02T02:47:54.478Z,6.00
2019-03-02T02:50:29.653Z,6.10
2019-03-02T02:52:55.294Z,6.10
2019-03-02T02:55:25.441Z,6.00
2019-03-02T02:57:54.915Z,6.00
2019-03-02T03:00:25.322Z,6.10
2019-03-02T03:02:54.764Z,6.00
2019-03-02T03:05:24.132Z,6.00
2019-03-02T03:07:55.846Z,6.00
2019-03-02T03:10:39.065Z,5.90
2019-03-02T03:13:09.212Z,6.00
2019-03-02T03:15:56.990Z,5.90
2019-03-02T03:18:26.402Z,5.90
2019-03-02T03:20:55.799Z,6.00
2019-03-02T03:23:26.498Z,6.00
2019-03-02T03:25:58.387Z,5.90
2019-03-02T03:28:30.545Z,6.00
2019-03-02T03:30:59.158Z,6.00
2019-03-02T03:33:41.992Z,5.90
2019-03-02T03:36:02.524Z,5.90
2019-03-02T03:38:31.845Z,5.90
2019-03-02T03:41:05.276Z,5.90
2019-03-02T03:43:41.874Z,5.90
2019-03-02T03:46:03.882Z,5.90
2019-03-02T03:48:33.298Z,5.90
2019-03-02T03:51:03.999Z,5.90
2019-03-02T03:53:38.263Z,5.90
2019-03-02T03:56:08.222Z,5.90
2019-03-02T03:58:41.313Z,5.90
2019-03-02T04:01:17.088Z,5.90
2019-03-02T04:03:47.134Z,5.90
2019-03-02T04:06:13.946Z,5.90
2019-03-02T04:08:43.639Z,5.90
2019-03-02T04:11:13.445Z,5.90
2019-03-02T04:13:44.760Z,5.90
2019-03-02T04:16:20.611Z,5.90
2019-03-02T04:18:58.006Z,5.90
2019-03-02T04:21:32.817Z,5.90
2019-03-02T04:24:03.277Z,5.90
2019-03-02T04:26:36.517Z,5.90
2019-03-02T04:29:10.169Z,6.00
2019-03-02T04:31:36.396Z,5.90
2019-03-02T04:34:05.780Z,5.90
2019-03-02T04:36:38.129Z,5.90
2019-03-02T04:39:09.702Z,5.90
2019-03-02T04:41:40.849Z,5.90
2019-03-02T04:44:10.334Z,5.90
2019-03-02T04:46:39.724Z,5.90
2019-03-02T04:49:10.846Z,5.90
2019-03-02T04:51:40.578Z,5.90
2019-03-02T04:54:09.964Z,5.90
2019-03-02T04:56:42.658Z,5.80
2019-03-02T04:59:12.940Z,5.80
2019-03-02T05:01:43.739Z,5.60
2019-03-02T05:04:13.443Z,5.60
2019-03-02T05:06:43.821Z,5.60
2019-03-02T05:09:13.659Z,5.50
2019-03-02T05:11:44.846Z,5.60
2019-03-02T05:14:18.495Z,5.50
2019-03-02T05:16:48.931Z,5.50
2019-03-02T05:19:18.869Z,5.60
2019-03-02T05:21:49.296Z,5.70
2019-03-02T05:24:19.285Z,5.60
2019-03-02T05:26:49.184Z,5.60
2019-03-02T05:29:19.133Z,5.70
2019-03-02T05:31:48.533Z,5.70
2019-03-02T05:34:18.064Z,5.70
2019-03-02T05:36:48.501Z,5.60
2019-03-02T05:39:18.470Z,5.60
2019-03-02T05:41:49.126Z,5.60
2019-03-02T05:44:19.786Z,5.60
2019-03-02T05:46:49.467Z,5.70
2019-03-02T05:49:19.813Z,5.60
2019-03-02T05:51:50.054Z,5.70
2019-03-02T05:54:19.609Z,5.70
2019-03-02T05:56:49.553Z,5.60
2019-03-02T05:59:18.927Z,5.60
2019-03-02T06:01:50.236Z,5.60
2019-03-02T06:04:22.066Z,5.60
2019-03-02T06:06:53.739Z,5.60
2019-03-02T06:09:22.221Z,5.60
2019-03-02T06:11:52.212Z,5.60
2019-03-02T06:14:21.596Z,5.60
2019-03-02T06:16:53.862Z,5.60
2019-03-02T06:19:24.312Z,5.60
2019-03-02T06:21:53.720Z,5.60
2019-03-02T06:24:23.156Z,5.60
2019-03-02T06:26:53.338Z,5.60
2019-03-02T06:29:22.724Z,5.50
2019-03-02T06:31:54.001Z,5.50
2019-03-02T06:34:27.145Z,5.50
2019-03-02T06:36:57.044Z,5.60
2019-03-02T06:39:28.093Z,5.50
2019-03-02T06:41:58.390Z,5.50
2019-03-02T06:44:30.782Z,5.50
2019-03-02T06:47:02.214Z,5.50
2019-03-02T06:49:31.628Z,5.50
2019-03-02T06:52:01.017Z,5.50
2019-03-02T06:54:30.453Z,5.50
2019-03-02T06:57:00.175Z,5.60
2019-03-02T06:59:29.553Z,5.50
2019-03-02T07:01:59.723Z,5.50
2019-03-02T07:04:33.191Z,5.50
2019-03-02T07:07:06.096Z,5.50
2019-03-02T07:09:35.118Z,5.50
2019-03-02T07:12:05.944Z,5.50
2019-03-02T07:14:36.176Z,5.60
2019-03-02T07:17:05.898Z,5.60
2019-03-02T07:19:42.707Z,5.60
2019-03-02T07:22:13.513Z,5.70
2019-03-02T07:24:46.397Z,5.70
2019-03-02T07:27:16.445Z,5.70
2019-03-02T07:29:45.834Z,5.80
2019-03-02T07:32:16.609Z,5.70
2019-03-02T07:34:46.253Z,5.80
2019-03-02T07:37:16.297Z,5.80
2019-03-02T07:39:45.683Z,5.80
2019-03-02T07:42:16.497Z,5.80
2019-03-02T07:44:45.913Z,5.80
2019-03-02T07:47:20.615Z,5.80
2019-03-02T07:49:50.696Z,5.80
2019-03-02T07:52:20.200Z,5.90
2019-03-02T07:54:58.101Z,5.80
2019-03-02T07:57:20.809Z,5.80
2019-03-02T07:59:52.404Z,5.90
2019-03-02T08:02:21.773Z,5.90
2019-03-02T08:04:51.504Z,6.00
2019-03-02T08:07:20.888Z,6.00
2019-03-02T08:09:51.469Z,6.10
2019-03-02T08:12:24.794Z,6.00
2019-03-02T08:14:53.561Z,6.10
2019-03-02T08:17:22.961Z,6.10
2019-03-02T08:19:52.702Z,6.10
2019-03-02T08:22:22.161Z,6.10
2019-03-02T08:24:51.678Z,6.10
2019-03-02T08:27:21.092Z,6.00
2019-03-02T08:29:53.912Z,6.00
2019-03-02T08:32:22.090Z,5.90
2019-03-02T08:34:52.621Z,5.90
2019-03-02T08:37:22.560Z,6.00
2019-03-02T08:39:52.147Z,6.00
2019-03-02T08:42:22.008Z,6.00
2019-03-02T08:44:54.070Z,6.00
2019-03-02T08:47:24.524Z,5.90
2019-03-02T08:49:53.946Z,5.90
2019-03-02T08:52:23.657Z,5.90
2019-03-02T08:54:53.554Z,5.90
2019-03-02T08:57:25.347Z,6.00
2019-03-02T08:59:56.224Z,6.10
2019-03-02T09:02:26.406Z,6.10
2019-03-02T09:04:55.820Z,6.20
2019-03-02T09:07:27.251Z,6.30
2019-03-02T09:09:57.741Z,6.20
2019-03-02T09:12:28.149Z,6.30
2019-03-02T09:14:57.516Z,6.30
2019-03-02T09:17:28.114Z,6.30
2019-03-02T09:19:59.593Z,6.30
2019-03-02T09:22:30.413Z,6.30
2019-03-02T09:24:59.781Z,6.40
2019-03-02T09:27:30.602Z,6.40
2019-03-02T09:30:00.189Z,6.50
2019-03-02T09:32:33.636Z,6.50
2019-03-02T09:35:03.842Z,6.60
2019-03-02T09:37:33.228Z,6.50
2019-03-02T09:40:03.687Z,6.50
2019-03-02T09:42:37.936Z,6.60
2019-03-02T09:45:07.669Z,6.70
2019-03-02T09:47:37.314Z,6.70
2019-03-02T09:50:10.046Z,6.80
2019-03-02T09:52:40.754Z,6.70
2019-03-02T09:55:10.882Z,6.80
2019-03-02T09:57:47.303Z,6.90
2019-03-02T10:00:19.189Z,6.80
2019-03-02T10:02:50.033Z,7.00
2019-03-02T10:05:19.866Z,7.10
2019-03-02T10:07:49.336Z,7.30
2019-03-02T10:10:19.277Z,7.30
2019-03-02T10:12:51.732Z,7.20
2019-03-02T10:15:24.191Z,7.20
2019-03-02T10:17:53.783Z,7.10
2019-03-02T10:20:23.216Z,7.20
2019-03-02T10:22:54.434Z,7.10
2019-03-02T10:25:25.994Z,7.00
2019-03-02T10:27:57.464Z,7.00
2019-03-02T10:30:28.985Z,7.00
2019-03-02T10:32:58.729Z,7.00
2019-03-02T10:35:29.306Z,7.00
2019-03-02T10:37:59.212Z,7.00
2019-03-02T10:40:31.122Z,7.10
2019-03-02T10:43:01.164Z,7.20
2019-03-02T10:45:33.759Z,7.30
2019-03-02T10:48:06.955Z,7.30
2019-03-02T10:50:37.009Z,7.30
2019-03-02T10:53:06.393Z,7.40
2019-03-02T10:55:36.910Z,7.40
2019-03-02T10:58:10.375Z,7.50
2019-03-02T11:00:41.034Z,7.70
2019-03-02T11:03:13.085Z,7.70
2019-03-02T11:05:56.916Z,7.70
2019-03-02T11:08:44.726Z,7.80
2019-03-02T11:11:44.279Z,7.90
2019-03-02T11:14:27.787Z,8.10
2019-03-02T11:17:06.910Z,8.10
2019-03-02T11:19:54.547Z,7.90
2019-03-02T11:22:44.558Z,7.70
2019-03-02T11:25:30.284Z,7.80
2019-03-02T11:28:25.397Z,7.90
2019-03-02T11:31:23.448Z,7.80
2019-03-02T11:34:09.283Z,7.80
2019-03-02T11:36:57.831Z,7.80
2019-03-02T11:39:40.703Z,7.70
2019-03-02T11:42:15.648Z,7.70
2019-03-02T11:45:03.210Z,7.70
2019-03-02T11:47:51.782Z,7.60
2019-03-02T11:50:54.766Z,7.60
2019-03-02T11:53:29.628Z,7.60
2019-03-02T11:56:10.197Z,7.70
2019-03-02T11:58:58.552Z,7.70
2019-03-02T12:01:37.373Z,7.70
2019-03-02T12:04:37.813Z,7.60
2019-03-02T12:07:26.133Z,7.70
2019-03-02T12:10:17.426Z,7.70
2019-03-02T12:12:58.732Z,7.70
2019-03-02T12:15:35.399Z,7.70
2019-03-02T12:18:26.625Z,7.70
2019-03-02T12:21:06.668Z,7.60
2019-03-02T12:24:15.058Z,7.60
2019-03-02T12:27:14.340Z,7.50
2019-03-02T12:30:25.990Z,7.40
2019-03-02T12:33:22.710Z,7.40
2019-03-02T12:36:01.113Z,7.50
2019-03-02T12:38:52.404Z,7.50
2019-03-02T12:41:39.509Z,7.50
2019-03-02T12:44:27.526Z,7.50
2019-03-02T12:47:14.852Z,7.60
2019-03-02T12:50:23.154Z,7.70
2019-03-02T12:53:24.533Z,7.90
2019-03-02T12:56:32.908Z,8.10
2019-03-02T12:59:35.911Z,8.40
2019-03-02T13:02:38.816Z,8.50
2019-03-02T13:05:43.756Z,8.50
2019-03-02T13:08:38.665Z,8.60
2019-03-02T13:11:33.249Z,8.80
2019-03-02T13:14:20.591Z,8.90
2019-03-02T13:17:17.988Z,8.80
2019-03-02T13:20:06.598Z,9.00
2019-03-02T13:22:50.712Z,9.00
2019-03-02T13:25:47.667Z,9.00
2019-03-02T13:28:23.302Z,9.10
2019-03-02T13:31:11.627Z,9.20
2019-03-02T13:34:11.552Z,9.10
2019-03-02T13:37:08.977Z,9.10
2019-03-02T13:40:00.126Z,9.10
2019-03-02T13:42:50.964Z,9.10
2019-03-02T13:45:32.436Z,9.10
2019-03-02T13:48:10.913Z,9.10
2019-03-02T13:51:08.533Z,9.10
2019-03-02T13:54:04.422Z,9.10
2019-03-02T13:56:53.314Z,9.10
2019-03-02T13:59:53.517Z,9.10
2019-03-02T14:02:41.872Z,9.00
2019-03-02T14:05:42.051Z,9.00
2019-03-02T14:08:28.357Z,8.90
2019-03-02T14:11:24.030Z,9.10
2019-03-02T14:14:08.356Z,9.10
2019-03-02T14:16:56.567Z,9.10
2019-03-02T14:19:37.981Z,9.00
2019-03-02T14:22:26.065Z,8.90
2019-03-02T14:25:19.041Z,8.90
2019-03-02T14:27:59.385Z,8.90
2019-03-02T14:30:43.981Z,8.70
2019-03-02T14:33:25.734Z,8.70
2019-03-02T14:36:16.730Z,8.90
2019-03-02T14:39:03.184Z,8.90
2019-03-02T14:41:48.089Z,8.80
2019-03-02T14:44:37.065Z,8.90
2019-03-02T14:47:36.578Z,8.90
2019-03-02T14:50:27.343Z,9.10
2019-03-02T14:53:14.681Z,9.20
2019-03-02T14:56:15.929Z,9.40
2019-03-02T14:58:56.133Z,9.30
2019-03-02T15:01:44.818Z,9.40
2019-03-02T15:04:39.152Z,9.50
2019-03-02T15:07:22.300Z,9.50
2019-03-02T15:10:03.057Z,9.60
2019-03-02T15:12:58.247Z,9.50
2019-03-02T15:15:42.901Z,9.60
2019-03-02T15:18:44.702Z,9.60
2019-03-02T15:21:27.542Z,9.70
2019-03-02T15:24:16.565Z,9.50
2019-03-02T15:26:55.203Z,9.50
2019-03-02T15:29:51.698Z,9.50
2019-03-02T15:32:53.218Z,9.40
2019-03-02T15:35:33.647Z,9.40
2019-03-02T15:38:23.454Z,9.40
2019-03-02T15:41:21.737Z,9.40
2019-03-02T15:44:10.584Z,9.40
2019-03-02T15:46:50.266Z,9.30
2019-03-02T15:49:26.214Z,9.30
2019-03-02T15:52:07.736Z,9.30
2019-03-02T15:55:04.898Z,9.20
2019-03-02T15:57:48.521Z,9.20
2019-03-02T16:00:38.347Z,9.20
2019-03-02T16:03:41.116Z,9.10
2019-03-02T16:06:19.607Z,9.10
2019-03-02T16:09:18.249Z,9.20
2019-03-02T16:12:13.069Z,9.20
2019-03-02T16:15:03.174Z,9.10
2019-03-02T16:17:43.342Z,9.10
2019-03-02T16:20:30.499Z,9.10
2019-03-02T16:23:20.681Z,9.00
2019-03-02T16:26:29.415Z,9.00
2019-03-02T16:29:19.155Z,9.00
2019-03-02T16:32:05.470Z,9.00
2019-03-02T16:34:53.792Z,9.00
2019-03-02T16:37:53.921Z,9.00
2019-03-02T16:40:30.738Z,8.90
2019-03-02T16:43:34.461Z,8.80
2019-03-02T16:46:12.502Z,8.80
2019-03-02T16:48:55.093Z,8.70
2019-03-02T16:51:36.078Z,8.70
2019-03-02T16:54:36.142Z,8.60
2019-03-02T16:57:30.192Z,8.50
2019-03-02T17:00:11.421Z,8.50
2019-03-02T17:02:51.456Z,8.40
2019-03-02T17:05:38.806Z,8.40
2019-03-02T17:08:31.041Z,8.40
2019-03-02T17:11:19.146Z,8.40
2019-03-02T17:14:09.157Z,8.20
2019-03-02T17:16:53.618Z,8.20
2019-03-02T17:19:31.863Z,8.10
2019-03-02T17:22:12.076Z,8.10
2019-03-02T17:25:00.240Z,8.00
2019-03-02T17:27:54.143Z,7.90
2019-03-02T17:30:36.124Z,7.80
2019-03-02T17:33:31.265Z,7.70
2019-03-02T17:36:20.416Z,7.60
2019-03-02T17:39:18.196Z,7.60
2019-03-02T17:42:19.501Z,7.60
2019-03-02T17:45:20.746Z,7.60
2019-03-02T17:48:09.430Z,7.60
2019-03-02T17:50:58.712Z,7.50
2019-03-02T17:53:46.736Z,7.60
2019-03-02T17:56:47.533Z,7.60
2019-03-02T17:59:39.798Z,7.60
2019-03-02T18:02:20.929Z,7.60
2019-03-02T18:05:18.341Z,7.60
2019-03-02T18:08:13.709Z,7.60
2019-03-02T18:11:13.357Z,7.70
2019-03-02T18:13:58.053Z,7.60
2019-03-02T18:16:41.357Z,7.50
2019-03-02T18:19:11.055Z,7.60
2019-03-02T18:21:41.890Z,7.60
2019-03-02T18:24:13.089Z,7.60
2019-03-02T18:26:44.562Z,7.60
2019-03-02T18:29:18.240Z,7.50
2019-03-02T18:31:47.974Z,7.50
2019-03-02T18:34:24.052Z,7.50
2019-03-02T18:36:53.103Z,7.50
2019-03-02T18:39:25.538Z,7.50
2019-03-02T18:41:54.957Z,7.50
2019-03-02T18:44:24.349Z,7.40
2019-03-02T18:46:54.517Z,7.40
2019-03-02T18:49:47.394Z,7.30
2019-03-02T18:52:28.062Z,7.30
2019-03-02T18:54:57.423Z,7.30
2019-03-02T18:57:26.815Z,7.30
2019-03-02T18:59:56.613Z,7.40
2019-03-02T19:02:29.516Z,7.30
2019-03-02T19:04:59.643Z,7.30
2019-03-02T19:07:29.268Z,7.40
2019-03-02T19:09:59.789Z,7.40
2019-03-02T19:12:33.930Z,7.30
2019-03-02T19:15:03.398Z,7.30
2019-03-02T19:17:43.159Z,7.40
2019-03-02T19:20:14.939Z,7.20
2019-03-02T19:22:45.585Z,7.20
2019-03-02T19:25:16.514Z,7.20
2019-03-02T19:27:45.907Z,7.10
2019-03-02T19:30:17.992Z,7.00
2019-03-02T19:32:47.522Z,7.00
2019-03-02T19:35:18.240Z,7.00
2019-03-02T19:37:49.350Z,7.00
2019-03-02T19:40:22.162Z,7.10
2019-03-02T19:42:51.697Z,7.10
2019-03-02T19:45:22.065Z,7.20
2019-03-02T19:47:52.346Z,7.20
2019-03-02T19:50:21.851Z,7.20
2019-03-02T19:52:52.223Z,7.30
2019-03-02T19:55:21.623Z,7.40
2019-03-02T19:57:51.217Z,7.40
2019-03-02T20:00:22.795Z,7.20
2019-03-02T20:02:56.468Z,7.20
2019-03-02T20:05:27.411Z,7.30
2019-03-02T20:07:58.107Z,7.10
2019-03-02T20:10:27.742Z,7.10
2019-03-02T20:12:57.540Z,7.00
2019-03-02T20:15:27.957Z,6.90
2019-03-02T20:17:57.808Z,6.90
2019-03-02T20:20:27.369Z,6.90
2019-03-02T20:22:57.098Z,6.80
2019-03-02T20:25:28.649Z,6.70
2019-03-02T20:27:57.971Z,6.70
2019-03-02T20:30:27.604Z,6.70
2019-03-02T20:33:00.401Z,6.60
2019-03-02T20:35:30.598Z,6.60
2019-03-02T20:38:00.624Z,6.50
2019-03-02T20:40:30.257Z,6.40
2019-03-02T20:42:59.909Z,6.40
2019-03-02T20:45:29.884Z,6.40
2019-03-02T20:47:59.373Z,6.30
2019-03-02T20:50:28.894Z,6.30
2019-03-02T20:52:58.347Z,6.30
2019-03-02T20:55:28.170Z,6.30
2019-03-02T20:57:57.876Z,6.30
2019-03-02T21:00:28.278Z,6.20
2019-03-02T21:02:57.990Z,6.30
2019-03-02T21:05:28.091Z,6.30
2019-03-02T21:07:57.676Z,6.30
2019-03-02T21:10:27.729Z,6.30
2019-03-02T21:12:57.203Z,6.30
2019-03-02T21:15:32.262Z,6.30
2019-03-02T21:18:01.674Z,6.30
2019-03-02T21:20:31.485Z,6.30
2019-03-02T21:23:02.856Z,6.20
2019-03-02T21:25:34.573Z,6.20
2019-03-02T21:28:04.028Z,6.20
2019-03-02T21:30:33.461Z,6.20
2019-03-02T21:33:03.276Z,6.30
2019-03-02T21:35:34.466Z,6.30
2019-03-02T21:38:05.331Z,6.30
2019-03-02T21:40:34.714Z,6.40
2019-03-02T21:43:05.188Z,6.40
2019-03-02T21:45:34.628Z,6.40
2019-03-02T21:48:04.133Z,6.50
2019-03-02T21:50:33.850Z,6.50
2019-03-02T21:53:06.178Z,6.60
2019-03-02T21:55:35.932Z,6.70
2019-03-02T21:58:05.478Z,6.80
2019-03-02T22:00:35.317Z,6.80
2019-03-02T22:03:05.704Z,6.90
2019-03-02T22:05:35.839Z,6.80
2019-03-02T22:08:05.274Z,6.80
2019-03-02T22:10:38.664Z,6.80
2019-03-02T22:13:11.670Z,6.80
2019-03-02T22:15:43.402Z,6.90
2019-03-02T22:18:13.488Z,6.80
2019-03-02T22:20:47.058Z,6.80
2019-03-02T22:23:19.101Z,6.90
2019-03-02T22:25:50.187Z,6.90
2019-03-02T22:28:22.181Z,7.00
2019-03-02T22:30:51.867Z,7.00
2019-03-02T22:33:21.633Z,7.00
2019-03-02T22:35:51.857Z,7.00
2019-03-02T22:38:24.706Z,7.00
2019-03-02T22:40:55.218Z,7.00
2019-03-02T22:43:26.518Z,7.10
2019-03-02T22:45:56.953Z,7.10
2019-03-02T22:48:26.914Z,7.10
2019-03-02T22:50:56.317Z,7.10
2019-03-02T22:53:27.720Z,7.10
2019-03-02T22:55:57.121Z,7.10
2019-03-02T22:58:31.813Z,7.10
2019-03-02T23:01:49.677Z,7.10
2019-03-02T23:04:23.424Z,7.10
2019-03-02T23:06:53.759Z,7.20
2019-03-02T23:09:25.463Z,7.20
2019-03-02T23:11:58.988Z,7.30
2019-03-02T23:14:29.090Z,7.30
2019-03-02T23:16:59.252Z,7.30
2019-03-02T23:19:29.348Z,7.40
2019-03-02T23:21:59.913Z,7.40
2019-03-02T23:24:29.355Z,7.30
2019-03-02T23:26:59.181Z,7.30
2019-03-02T23:29:32.178Z,7.20
2019-03-02T23:32:02.174Z,7.20
2019-03-02T23:34:37.341Z,7.20
2019-03-02T23:37:09.473Z,7.30
2019-03-02T23:39:38.904Z,7.30
2019-03-02T23:42:10.335Z,7.30
2019-03-02T23:44:39.698Z,7.30
2019-03-02T23:47:10.358Z,7.30
2019-03-02T23:49:41.038Z,7.30
2019-03-02T23:52:12.374Z,7.30
2019-03-02T23:54:42.257Z,7.20
2019-03-02T23:57:11.844Z,7.20
2019-03-02T23:59:41.308Z,7.20
